Time;durP1;ratioP1;P1;durP2;ratioP2;P2;SDS_P1;SDS_P2;PMS_P1;PMS_P2;Temp;Humidity;BMP_temperature;BMP_pressure;BME280_temperature;BME280_humidity;BME280_pressure;Samples;Min_cycle;Max_cycle;Signal;HPM_P1;HPM_P2
2021/11/04 00:01:28;;;;;;;3.50;2.80;;;20.50;56.30;;;;;;3134437;28;20056;-49
2021/11/04 00:03:00;;;;;;;3.92;2.83;;;20.50;56.30;;;;;;3135604;28;20098;-55
2021/11/04 00:04:32;;;;;;;6.35;3.05;;;20.50;56.20;;;;;;3135023;28;20049;-52
2021/11/04 00:06:04;;;;;;;5.00;3.17;;;20.50;56.10;;;;;;3135419;28;20102;-55
2021/11/04 00:07:37;;;;;;;6.30;3.40;;;20.50;56.10;;;;;;3135473;28;20099;-52
2021/11/04 00:09:08;;;;;;;3.25;2.80;;;20.60;56.00;;;;;;3132778;28;20098;-53
2021/11/04 00:10:40;;;;;;;4.55;2.97;;;20.70;55.70;;;;;;3135366;28;20049;-54
2021/11/04 00:12:12;;;;;;;4.78;2.92;;;20.80;55.30;;;;;;3135289;28;20044;-51
2021/11/04 00:13:43;;;;;;;4.47;3.15;;;20.90;55.00;;;;;;3135444;28;20496;-53
2021/11/04 00:15:15;;;;;;;4.07;2.55;;;21.00;54.80;;;;;;3131811;28;20049;-52
2021/11/04 00:16:47;;;;;;;4.07;2.70;;;21.00;54.60;;;;;;3135469;28;20045;-52
2021/11/04 00:18:19;;;;;;;4.40;2.60;;;21.00;54.50;;;;;;3135606;28;20045;-55
2021/11/04 00:19:50;;;;;;;6.10;2.55;;;21.10;54.40;;;;;;3134697;28;20049;-53
2021/11/04 00:21:22;;;;;;;5.85;2.63;;;21.20;54.30;;;;;;3135226;28;20053;-54
2021/11/04 00:22:55;;;;;;;3.83;2.90;;;21.10;54.30;;;;;;3135387;28;20417;-52
2021/11/04 00:24:27;;;;;;;4.65;2.85;;;21.10;54.30;;;;;;3134813;28;20166;-53
2021/11/04 00:25:58;;;;;;;4.30;2.80;;;21.20;54.10;;;;;;3135016;28;20056;-53
2021/11/04 00:27:30;;;;;;;3.35;2.63;;;21.30;53.90;;;;;;3135519;28;20053;-53
2021/11/04 00:29:02;;;;;;;5.25;2.70;;;21.30;53.80;;;;;;3134689;28;20108;-51
2021/11/04 00:30:37;;;;;;;3.95;2.70;;;21.30;53.60;;;;;;3134195;28;20041;-51
2021/11/04 00:32:08;;;;;;;3.60;2.70;;;21.30;53.60;;;;;;3134931;28;20049;-52
2021/11/04 00:33:40;;;;;;;3.97;2.55;;;21.40;53.50;;;;;;3135023;28;20061;-54
2021/11/04 00:35:12;;;;;;;3.63;2.35;;;21.40;53.50;;;;;;3134680;28;20083;-54
2021/11/04 00:36:44;;;;;;;3.63;2.58;;;21.30;53.50;;;;;;3134960;28;20490;-51
2021/11/04 00:38:18;;;;;;;3.05;2.50;;;21.40;53.50;;;;;;3135257;28;20531;-52
2021/11/04 00:39:50;;;;;;;3.85;2.85;;;21.40;53.30;;;;;;3134433;28;20048;-50
2021/11/04 00:41:21;;;;;;;3.42;2.78;;;21.40;53.30;;;;;;3135088;28;20045;-54
2021/11/04 00:42:53;;;;;;;3.22;2.15;;;21.40;53.30;;;;;;3135191;28;20048;-53
2021/11/04 00:44:25;;;;;;;3.20;2.60;;;21.40;53.30;;;;;;3134392;28;20040;-53
2021/11/04 00:45:56;;;;;;;3.85;2.67;;;21.40;53.20;;;;;;3133812;28;20068;-51
2021/11/04 00:47:28;;;;;;;4.10;2.60;;;21.50;53.00;;;;;;3134961;28;20061;-54
2021/11/04 00:49:00;;;;;;;2.92;2.17;;;21.50;52.90;;;;;;3133967;28;20559;-52
2021/11/04 00:50:32;;;;;;;5.38;2.53;;;21.50;53.00;;;;;;3133897;28;20049;-55
2021/11/04 00:52:04;;;;;;;2.75;2.30;;;21.50;53.00;;;;;;3134911;28;20057;-53
2021/11/04 00:53:37;;;;;;;4.67;2.50;;;21.50;53.10;;;;;;3135017;28;20056;-54
2021/11/04 00:55:09;;;;;;;2.80;2.30;;;21.50;53.10;;;;;;3134257;28;20084;-55
2021/11/04 00:56:41;;;;;;;2.75;2.38;;;21.50;53.10;;;;;;3134906;28;20057;-55
2021/11/04 00:58:13;;;;;;;3.53;2.40;;;21.50;53.00;;;;;;3135121;28;20429;-53
2021/11/04 00:59:45;;;;;;;2.78;2.45;;;21.50;53.10;;;;;;3134232;28;20493;-56
2021/11/04 01:01:17;;;;;;;3.63;2.45;;;21.50;53.10;;;;;;3129944;28;20067;-51
2021/11/04 01:02:49;;;;;;;2.92;2.38;;;21.50;53.20;;;;;;3134748;28;20049;-52
2021/11/04 01:04:21;;;;;;;3.55;2.40;;;21.50;53.20;;;;;;3134427;28;20167;-56
2021/11/04 01:05:52;;;;;;;3.75;2.40;;;21.50;53.10;;;;;;3134633;28;20049;-54
2021/11/04 01:07:24;;;;;;;3.22;2.20;;;21.50;53.10;;;;;;3134866;28;20106;-52
2021/11/04 01:08:57;;;;;;;3.25;2.60;;;21.50;53.10;;;;;;3134891;28;20048;-51
2021/11/04 01:10:29;;;;;;;3.65;2.40;;;21.50;53.10;;;;;;3134362;28;20049;-51
2021/11/04 01:12:00;;;;;;;3.03;2.10;;;21.50;53.00;;;;;;3134664;28;20045;-54
2021/11/04 01:13:32;;;;;;;3.58;2.03;;;21.50;53.10;;;;;;3134750;28;20486;-53
2021/11/04 01:15:05;;;;;;;3.05;2.25;;;21.50;53.00;;;;;;3134051;28;20049;-56
2021/11/04 01:16:38;;;;;;;3.10;1.90;;;21.60;52.80;;;;;;3133922;28;20057;-52
2021/11/04 01:18:10;;;;;;;2.88;2.40;;;21.50;52.80;;;;;;3134717;28;20083;-54
2021/11/04 01:19:41;;;;;;;2.60;2.30;;;21.60;52.70;;;;;;3140077;28;20056;-52
2021/11/04 01:21:13;;;;;;;2.95;2.33;;;21.50;52.80;;;;;;3146865;28;20052;-54
2021/11/04 01:22:45;;;;;;;2.95;2.20;;;21.50;52.80;;;;;;3146915;28;20064;-56
2021/11/04 01:24:18;;;;;;;4.53;2.22;;;21.50;52.80;;;;;;3145169;28;20801;-53
2021/11/04 01:25:50;;;;;;;2.35;1.80;;;21.50;52.80;;;;;;3147059;28;20059;-52
2021/11/04 01:27:21;;;;;;;4.65;2.28;;;21.50;52.90;;;;;;3147092;28;20051;-50
2021/11/04 01:28:53;;;;;;;2.83;1.90;;;21.50;52.80;;;;;;3147020;28;20071;-51
2021/11/04 01:30:25;;;;;;;3.47;2.38;;;21.50;52.70;;;;;;3140833;28;21391;-55
2021/11/04 01:31:56;;;;;;;2.67;2.20;;;21.50;52.70;;;;;;3146930;28;20048;-52
2021/11/04 01:33:28;;;;;;;2.10;1.88;;;21.60;52.70;;;;;;3146941;28;20404;-54
2021/11/04 01:35:00;;;;;;;3.17;2.20;;;21.60;52.70;;;;;;3146127;28;20590;-52
2021/11/04 01:36:32;;;;;;;3.10;2.10;;;21.60;52.70;;;;;;3146800;28;20048;-52
2021/11/04 01:38:05;;;;;;;3.28;2.00;;;21.50;52.70;;;;;;3146911;28;20436;-54
2021/11/04 01:39:38;;;;;;;;;;;21.50;52.80;;;;;;3146475;28;20044;-52
2021/11/04 01:41:10;;;;;;;2.67;2.05;;;21.50;52.70;;;;;;3146818;28;19975;-52
2021/11/04 01:42:41;;;;;;;3.03;2.13;;;21.50;52.70;;;;;;3146759;28;20052;-54
2021/11/04 01:44:13;;;;;;;2.72;1.80;;;21.50;52.80;;;;;;3146089;28;20052;-54
2021/11/04 01:45:45;;;;;;;2.78;2.20;;;21.50;52.80;;;;;;3145892;28;20051;-54
2021/11/04 01:47:16;;;;;;;2.25;2.00;;;21.50;52.60;;;;;;3146735;28;20113;-49
2021/11/04 01:48:48;;;;;;;2.75;1.95;;;21.60;52.60;;;;;;3146724;28;20056;-52
2021/11/04 01:50:22;;;;;;;2.85;1.80;;;21.60;52.50;;;;;;3146039;28;20459;-52
2021/11/04 01:51:54;;;;;;;2.25;1.80;;;21.60;52.60;;;;;;3146569;28;20048;-53
2021/11/04 01:53:26;;;;;;;3.42;1.90;;;21.60;52.60;;;;;;3146723;28;20052;-56
2021/11/04 01:54:59;;;;;;;2.70;1.67;;;21.60;52.60;;;;;;3145957;28;20049;-52
2021/11/04 01:56:30;;;;;;;2.63;1.95;;;21.50;52.60;;;;;;3146599;28;20044;-55
2021/11/04 01:58:02;;;;;;;2.90;2.05;;;21.60;52.60;;;;;;3146657;28;20056;-54
2021/11/04 01:59:34;;;;;;;2.40;1.70;;;21.60;52.60;;;;;;3146121;28;20056;-53
2021/11/04 02:01:05;;;;;;;2.30;1.90;;;21.60;52.60;;;;;;3145377;28;20048;-53
2021/11/04 02:02:40;;;;;;;3.10;2.00;;;21.60;52.60;;;;;;3146570;28;20668;-51
2021/11/04 02:04:15;;;;;;;2.38;1.83;;;21.60;52.60;;;;;;3145152;28;20127;-52
2021/11/04 02:05:52;;;;;;;2.65;1.85;;;21.60;52.60;;;;;;3146102;28;20060;-50
2021/11/04 02:07:26;;;;;;;2.05;1.83;;;21.60;52.60;;;;;;3205089;22;20382;-58
2021/11/04 02:09:02;;;;;;;2.60;1.52;;;21.60;52.50;;;;;;3126748;28;20053;-56
2021/11/04 02:10:37;;;;;;;2.65;1.73;;;21.60;52.60;;;;;;3128711;28;20067;-51
2021/11/04 02:12:12;;;;;;;1.85;1.73;;;21.50;52.60;;;;;;3133789;28;20440;-49
2021/11/04 02:13:49;;;;;;;3.55;2.05;;;21.50;52.50;;;;;;3133565;28;20045;-56
2021/11/04 02:15:21;;;;;;;2.25;1.80;;;21.60;52.60;;;;;;3122496;28;20050;-49
2021/11/04 02:16:53;;;;;;;2.53;1.92;;;21.60;52.50;;;;;;3133301;28;20041;-51
2021/11/04 02:18:29;;;;;;;3.30;1.80;;;21.50;52.50;;;;;;3133848;28;20049;-51
2021/11/04 02:20:01;;;;;;;1.70;1.60;;;21.60;52.60;;;;;;3132689;28;20539;-56
2021/11/04 02:21:35;;;;;;;6.75;1.70;;;21.50;52.50;;;;;;3133545;28;20449;-55
2021/11/04 02:23:14;;;;;;;1.73;1.60;;;21.50;52.60;;;;;;3133444;28;20107;-49
2021/11/04 02:24:49;;;;;;;2.60;1.90;;;21.50;52.60;;;;;;3132870;28;20045;-51
2021/11/04 02:26:22;;;;;;;1.90;1.70;;;21.50;52.60;;;;;;3133694;28;20049;-51
2021/11/04 02:27:54;;;;;;;1.63;1.52;;;21.50;52.60;;;;;;3133137;28;20478;-54
2021/11/04 02:29:26;;;;;;;2.47;1.85;;;21.50;52.50;;;;;;3132451;28;20049;-47
2021/11/04 02:30:58;;;;;;;2.95;2.00;;;21.60;52.50;;;;;;3132113;28;20452;-47
2021/11/04 02:32:30;;;;;;;2.42;1.90;;;21.60;52.30;;;;;;3132866;28;20080;-47
2021/11/04 02:34:02;;;;;;;2.13;1.60;;;21.60;52.30;;;;;;3132551;28;20090;-53
2021/11/04 02:35:33;;;;;;;1.83;1.63;;;21.60;52.30;;;;;;3133148;28;20052;-56
2021/11/04 02:37:05;;;;;;;2.05;1.83;;;21.60;52.30;;;;;;3133337;28;20049;-55
2021/11/04 02:38:37;;;;;;;2.03;1.80;;;21.60;52.40;;;;;;3133519;28;20075;-50
2021/11/04 02:40:08;;;;;;;1.85;1.48;;;21.60;52.40;;;;;;3132314;28;20056;-48
2021/11/04 02:41:41;;;;;;;2.28;1.70;;;21.60;52.50;;;;;;3133283;28;20409;-51
2021/11/04 02:43:14;;;;;;;2.70;1.90;;;21.60;52.50;;;;;;3133578;28;20090;-47
2021/11/04 02:44:45;;;;;;;2.35;1.42;;;21.50;52.50;;;;;;3132543;28;20041;-46
2021/11/04 02:46:17;;;;;;;1.90;1.52;;;21.50;52.50;;;;;;3132369;28;20049;-49
2021/11/04 02:47:49;;;;;;;3.03;1.80;;;21.50;52.50;;;;;;3133445;28;20060;-47
2021/11/04 02:49:21;;;;;;;1.98;1.67;;;21.50;52.60;;;;;;3132935;28;20048;-51
2021/11/04 02:50:52;;;;;;;1.77;1.65;;;21.50;52.50;;;;;;3132571;28;20052;-50
2021/11/04 02:52:24;;;;;;;1.95;1.75;;;21.50;52.50;;;;;;3133184;28;20528;-56
2021/11/04 02:53:56;;;;;;;2.63;1.70;;;21.50;52.50;;;;;;3133563;28;20477;-53
2021/11/04 02:55:31;;;;;;;2.60;1.70;;;21.50;52.50;;;;;;3132393;28;20639;-47
2021/11/04 02:57:04;;;;;;;3.03;2.03;;;21.50;52.50;;;;;;3133053;28;20124;-54
2021/11/04 02:58:36;;;;;;;2.20;1.70;;;21.50;52.50;;;;;;3133368;28;20091;-48
2021/11/04 03:00:09;;;;;;;1.67;1.45;;;21.50;52.50;;;;;;3131213;28;20433;-47
2021/11/04 03:01:42;;;;;;;1.85;1.50;;;21.60;52.40;;;;;;3132970;28;20448;-47
2021/11/04 03:03:14;;;;;;;1.70;1.60;;;21.60;52.40;;;;;;3132922;28;20405;-48
2021/11/04 03:04:45;;;;;;;1.60;1.48;;;21.50;52.50;;;;;;3132448;28;20098;-52
2021/11/04 03:06:17;;;;;;;2.10;1.60;;;21.50;52.50;;;;;;3132746;28;20049;-53
2021/11/04 03:07:49;;;;;;;1.55;1.45;;;21.50;52.50;;;;;;3133285;28;20106;-54
2021/11/04 03:09:21;;;;;;;2.25;1.40;;;21.50;52.50;;;;;;3132355;28;20044;-48
2021/11/04 03:10:53;;;;;;;1.98;1.50;;;21.50;52.50;;;;;;3132552;28;20048;-49
2021/11/04 03:12:26;;;;;;;1.65;1.55;;;21.50;52.50;;;;;;3133150;28;20486;-50
2021/11/04 03:13:58;;;;;;;2.58;1.80;;;21.50;52.50;;;;;;3132157;28;20060;-52
2021/11/04 03:15:30;;;;;;;2.22;1.77;;;21.50;52.50;;;;;;3131929;28;20048;-56
2021/11/04 03:17:04;;;;;;;2.28;1.42;;;21.50;52.50;;;;;;3132799;28;20053;-53
2021/11/04 03:18:35;;;;;;;2.75;1.55;;;21.50;52.60;;;;;;3133189;28;20130;-49
2021/11/04 03:20:08;;;;;;;2.00;1.63;;;21.50;52.50;;;;;;3132258;28;20049;-47
2021/11/04 03:21:41;;;;;;;2.13;1.55;;;21.50;52.40;;;;;;3132995;28;20397;-47
2021/11/04 03:23:12;;;;;;;;;;;21.50;52.50;;;;;;3133264;28;20045;-49
2021/11/04 03:24:44;;;;;;;1.58;1.40;;;21.50;52.60;;;;;;3132115;28;19920;-54
2021/11/04 03:26:16;;;;;;;2.42;1.50;;;21.50;52.50;;;;;;3132894;28;20091;-51
2021/11/04 03:27:50;;;;;;;1.50;1.35;;;21.50;52.50;;;;;;3132926;28;20107;-51
2021/11/04 03:29:22;;;;;;;2.13;1.55;;;21.50;52.50;;;;;;3132580;28;20576;-51
2021/11/04 03:30:54;;;;;;;2.00;1.55;;;21.50;52.50;;;;;;3131839;28;20151;-54
2021/11/04 03:32:26;;;;;;;1.75;1.48;;;21.50;52.60;;;;;;3131576;28;20045;-47
2021/11/04 03:33:57;;;;;;;1.75;1.48;;;21.50;52.50;;;;;;3132578;28;20041;-47
2021/11/04 03:35:30;;;;;;;1.98;1.58;;;21.50;52.50;;;;;;3133131;28;20057;-52
2021/11/04 03:37:02;;;;;;;2.00;1.60;;;21.50;52.50;;;;;;3132755;28;20051;-47
2021/11/04 03:38:33;;;;;;;1.48;1.38;;;21.50;52.60;;;;;;3132903;28;20049;-55
2021/11/04 03:40:06;;;;;;;1.88;1.48;;;21.50;52.60;;;;;;3132291;28;20045;-51
2021/11/04 03:41:38;;;;;;;3.42;1.40;;;21.50;52.50;;;;;;3133264;28;20044;-49
2021/11/04 03:43:11;;;;;;;2.25;1.70;;;21.50;52.50;;;;;;3133084;28;20079;-51
2021/11/04 03:44:43;;;;;;;1.42;1.30;;;21.50;52.50;;;;;;3132517;28;20049;-48
2021/11/04 03:46:14;;;;;;;1.83;1.40;;;21.50;52.50;;;;;;3131891;28;20512;-55
2021/11/04 03:47:46;;;;;;;1.40;1.30;;;21.50;52.50;;;;;;3133362;28;20053;-51
2021/11/04 03:49:19;;;;;;;2.42;1.35;;;21.50;52.50;;;;;;3132560;28;20045;-50
2021/11/04 03:50:50;;;;;;;1.63;1.45;;;21.50;52.50;;;;;;3132399;28;20070;-51
2021/11/04 03:52:22;;;;;;;1.50;1.40;;;21.50;52.50;;;;;;3132739;28;20053;-49
2021/11/04 03:53:54;;;;;;;2.00;1.48;;;21.50;52.50;;;;;;3132896;28;20110;-56
2021/11/04 03:55:29;;;;;;;1.95;1.45;;;21.50;52.50;;;;;;3132213;28;20063;-48
2021/11/04 03:57:01;;;;;;;1.58;1.42;;;21.50;52.40;;;;;;3132722;28;20049;-49
2021/11/04 03:58:34;;;;;;;1.40;1.20;;;21.50;52.50;;;;;;3132633;28;20132;-52
2021/11/04 04:00:07;;;;;;;1.75;1.50;;;21.50;52.60;;;;;;3131298;28;20060;-48
2021/11/04 04:01:39;;;;;;;1.55;1.40;;;21.50;52.50;;;;;;3132466;28;20497;-51
2021/11/04 04:03:11;;;;;;;2.20;1.25;;;21.50;52.50;;;;;;3132720;28;20106;-49
2021/11/04 04:04:43;;;;;;;1.70;1.50;;;21.50;52.40;;;;;;3132086;28;20520;-57
2021/11/04 04:06:14;;;;;;;1.48;1.38;;;21.50;52.50;;;;;;3132407;28;20056;-57
2021/11/04 04:07:46;;;;;;;1.40;1.30;;;21.50;52.40;;;;;;3132705;28;20045;-49
2021/11/04 04:09:18;;;;;;;1.60;1.38;;;21.50;52.40;;;;;;3132155;28;20041;-52
2021/11/04 04:10:49;;;;;;;2.03;1.30;;;21.50;52.40;;;;;;3132230;28;20049;-47
2021/11/04 04:12:21;;;;;;;1.33;1.20;;;21.50;52.30;;;;;;3132775;28;20048;-50
2021/11/04 04:13:55;;;;;;;1.30;1.20;;;21.50;52.50;;;;;;3132665;28;20049;-52
2021/11/04 04:15:27;;;;;;;1.50;1.40;;;21.50;52.40;;;;;;3131208;28;20467;-47
2021/11/04 04:16:59;;;;;;;2.47;1.27;;;21.50;52.30;;;;;;3132753;28;20422;-57
2021/11/04 04:18:31;;;;;;;1.60;1.40;;;21.50;52.50;;;;;;3132886;28;20045;-48
2021/11/04 04:20:03;;;;;;;2.10;1.38;;;21.40;52.40;;;;;;3131919;28;20044;-47
2021/11/04 04:21:34;;;;;;;1.85;1.33;;;21.40;52.50;;;;;;3132093;28;20053;-53
2021/11/04 04:23:06;;;;;;;1.45;1.20;;;21.50;52.50;;;;;;3132720;28;20056;-53
2021/11/04 04:24:38;;;;;;;1.58;1.40;;;21.50;52.50;;;;;;3140140;28;20045;-55
2021/11/04 04:26:09;;;;;;;1.50;1.40;;;21.40;52.50;;;;;;3134775;28;20137;-47
2021/11/04 04:27:41;;;;;;;1.42;1.27;;;21.40;52.50;;;;;;3135035;28;20049;-49
2021/11/04 04:29:14;;;;;;;2.05;1.50;;;21.40;52.50;;;;;;3134584;28;20052;-50
2021/11/04 04:30:46;;;;;;;1.70;1.40;;;21.40;52.60;;;;;;3133792;28;20045;-56
2021/11/04 04:32:18;;;;;;;1.30;1.15;;;21.40;52.50;;;;;;3134840;28;20346;-47
2021/11/04 04:33:49;;;;;;;1.25;1.15;;;21.40;52.60;;;;;;3134656;28;20045;-49
2021/11/04 04:35:21;;;;;;;2.28;1.30;;;21.40;52.50;;;;;;3134331;28;20524;-47
2021/11/04 04:36:53;;;;;;;1.50;1.20;;;21.40;52.50;;;;;;3134768;28;20049;-54
2021/11/04 04:38:25;;;;;;;1.40;1.30;;;21.40;52.50;;;;;;3135001;28;20425;-51
2021/11/04 04:39:56;;;;;;;1.33;1.20;;;21.40;52.50;;;;;;3133816;28;20459;-56
2021/11/04 04:41:28;;;;;;;2.03;1.30;;;21.40;52.50;;;;;;3134882;28;20485;-54
2021/11/04 04:43:00;;;;;;;2.47;1.50;;;21.40;52.50;;;;;;3134895;28;20489;-47
2021/11/04 04:44:33;;;;;;;2.10;1.30;;;21.40;52.40;;;;;;3134206;28;20474;-55
2021/11/04 04:46:05;;;;;;;1.40;1.30;;;21.40;52.50;;;;;;3133617;28;20045;-48
2021/11/04 04:47:36;;;;;;;2.75;1.30;;;21.40;52.50;;;;;;3136055;28;20102;-49
2021/11/04 04:49:08;;;;;;;1.23;1.10;;;21.50;52.50;;;;;;3138270;28;20122;-47
2021/11/04 04:50:41;;;;;;;1.95;1.30;;;21.50;52.50;;;;;;3133943;28;20052;-53
2021/11/04 04:52:13;;;;;;;1.25;1.13;;;21.50;52.30;;;;;;3134607;28;20041;-50
2021/11/04 04:53:44;;;;;;;1.42;1.25;;;21.50;52.20;;;;;;3134530;28;20048;-48
2021/11/04 04:55:16;;;;;;;1.40;1.20;;;21.60;52.20;;;;;;3133959;28;20048;-50
2021/11/04 04:56:48;;;;;;;1.50;1.40;;;21.70;52.00;;;;;;3134209;28;20045;-52
2021/11/04 04:58:19;;;;;;;1.45;1.25;;;21.80;51.80;;;;;;3134587;28;20057;-56
2021/11/04 04:59:53;;;;;;;1.20;1.10;;;21.80;51.70;;;;;;3133429;28;20132;-48
2021/11/04 05:01:24;;;;;;;1.20;1.10;;;21.90;51.40;;;;;;3133504;28;20497;-47
2021/11/04 05:02:55;;;;;;;1.40;1.30;;;22.00;51.40;;;;;;3134660;28;20547;-51
2021/11/04 05:04:27;;;;;;;0.98;0.98;;;22.00;51.10;;;;;;3134031;28;20037;-52
2021/11/04 05:05:59;;;;;;;1.88;1.00;;;22.10;51.00;;;;;;3134297;28;20099;-50
2021/11/04 05:07:30;;;;;;;1.50;1.20;;;22.10;50.90;;;;;;3134361;28;20056;-51
2021/11/04 05:09:02;;;;;;;1.52;1.20;;;22.20;50.90;;;;;;3133723;28;20060;-53
2021/11/04 05:10:34;;;;;;;1.20;1.10;;;22.20;50.80;;;;;;3134289;28;20060;-50
2021/11/04 05:12:06;;;;;;;1.08;0.98;;;22.30;51.20;;;;;;3134349;28;20516;-52
2021/11/04 05:13:38;;;;;;;1.27;1.10;;;22.30;51.10;;;;;;3134496;28;20052;-49
2021/11/04 05:15:11;;;;;;;1.30;1.20;;;22.30;50.40;;;;;;3132971;28;20049;-50
2021/11/04 05:16:43;;;;;;;1.30;1.20;;;22.40;50.20;;;;;;3134224;28;20045;-55
2021/11/04 05:18:14;;;;;;;2.30;1.50;;;22.40;50.20;;;;;;3134364;28;20049;-52
2021/11/04 05:19:46;;;;;;;1.85;1.10;;;22.50;50.10;;;;;;3133454;28;20049;-53
2021/11/04 05:21:18;;;;;;;1.25;1.15;;;22.50;50.00;;;;;;3134434;28;20056;-48
2021/11/04 05:22:49;;;;;;;1.52;1.10;;;22.60;50.00;;;;;;3134340;28;20091;-51
2021/11/04 05:24:21;;;;;;;1.20;1.10;;;22.60;49.80;;;;;;3130192;28;20045;-57
2021/11/04 05:25:53;;;;;;;1.20;0.95;;;22.70;49.80;;;;;;3121842;28;20046;-48
2021/11/04 05:27:25;;;;;;;1.00;0.90;;;22.70;49.70;;;;;;3122043;28;20084;-48
2021/11/04 05:28:57;;;;;;;0.85;0.85;;;22.70;49.60;;;;;;3122002;28;20072;-48
2021/11/04 05:30:30;;;;;;;1.30;1.17;;;22.70;49.50;;;;;;3132452;28;20041;-48
2021/11/04 05:32:02;;;;;;;1.45;1.23;;;22.80;49.40;;;;;;3135827;28;20045;-58
2021/11/04 05:33:34;;;;;;;1.20;1.10;;;22.80;49.40;;;;;;3134129;28;20448;-54
2021/11/04 05:35:06;;;;;;;3.13;1.10;;;22.80;49.30;;;;;;3133816;28;20810;-52
2021/11/04 05:36:38;;;;;;;2.33;1.00;;;22.80;49.40;;;;;;3133890;28;20076;-58
2021/11/04 05:38:09;;;;;;;1.42;1.05;;;22.80;49.30;;;;;;3134385;28;20049;-52
2021/11/04 05:39:42;;;;;;;1.63;1.00;;;22.70;49.50;;;;;;3133721;28;20049;-55
2021/11/04 05:41:14;;;;;;;1.77;0.98;;;22.70;49.60;;;;;;3134355;28;20052;-56
2021/11/04 05:42:45;;;;;;;1.50;1.15;;;22.70;49.70;;;;;;3134408;28;20095;-52
2021/11/04 05:44:17;;;;;;;1.35;1.00;;;22.70;49.70;;;;;;3133629;28;20550;-55
2021/11/04 05:45:50;;;;;;;1.23;1.10;;;22.70;49.70;;;;;;3133585;28;20037;-50
2021/11/04 05:47:22;;;;;;;1.10;0.90;;;22.70;49.80;;;;;;3134290;28;20048;-54
2021/11/04 05:48:54;;;;;;;1.40;1.10;;;22.60;50.00;;;;;;3134289;28;20128;-57
2021/11/04 05:50:25;;;;;;;1.42;1.15;;;22.50;50.00;;;;;;3133665;28;20053;-52
2021/11/04 05:51:57;;;;;;;1.60;1.20;;;22.50;50.10;;;;;;3134055;28;20045;-57
2021/11/04 05:53:29;;;;;;;2.13;1.30;;;22.40;50.20;;;;;;3134290;28;20048;-56
2021/11/04 05:55:01;;;;;;;0.90;0.80;;;22.40;50.30;;;;;;3133610;28;20182;-50
2021/11/04 05:56:33;;;;;;;0.97;0.87;;;22.40;50.30;;;;;;3134447;28;20222;-52
2021/11/04 05:58:04;;;;;;;1.00;0.98;;;22.30;50.40;;;;;;3134007;28;20349;-50
2021/11/04 05:59:36;;;;;;;1.05;0.95;;;22.30;50.60;;;;;;3133510;28;20044;-56
2021/11/04 06:01:09;;;;;;;1.35;1.10;;;22.30;50.80;;;;;;3132662;28;20049;-51
2021/11/04 06:02:41;;;;;;;2.63;0.90;;;22.20;50.80;;;;;;3133772;28;20053;-50
2021/11/04 06:04:13;;;;;;;1.10;1.00;;;22.30;50.80;;;;;;3133428;28;20045;-50
2021/11/04 06:05:44;;;;;;;2.88;0.90;;;22.20;50.70;;;;;;3134035;28;20053;-50
2021/11/04 06:07:15;;;;;;;2.22;1.00;;;22.30;50.80;;;;;;3133894;28;20049;-51
2021/11/04 06:08:47;;;;;;;2.67;1.08;;;22.30;50.70;;;;;;3134095;28;20056;-53
2021/11/04 06:10:18;;;;;;;2.45;1.20;;;22.30;50.70;;;;;;3133364;28;20095;-55
2021/11/04 06:11:51;;;;;;;1.00;0.90;;;22.40;50.60;;;;;;3133945;28;20098;-54
2021/11/04 06:13:23;;;;;;;1.75;1.20;;;22.30;50.60;;;;;;3133708;28;20053;-53
2021/11/04 06:14:54;;;;;;;1.98;0.90;;;22.30;50.60;;;;;;3133597;28;20095;-57
2021/11/04 06:16:27;;;;;;;1.35;0.90;;;22.40;50.60;;;;;;3133079;28;20049;-53
2021/11/04 06:17:59;;;;;;;1.17;0.90;;;22.40;50.60;;;;;;3133983;28;20045;-54
2021/11/04 06:19:31;;;;;;;5.53;1.00;;;22.50;50.60;;;;;;3133383;28;20045;-51
2021/11/04 06:21:03;;;;;;;1.08;0.93;;;22.50;50.40;;;;;;3133733;28;20107;-51
2021/11/04 06:22:34;;;;;;;1.15;1.00;;;22.50;50.50;;;;;;3133950;28;20053;-57
2021/11/04 06:24:06;;;;;;;1.23;1.10;;;22.50;50.60;;;;;;3133196;28;20382;-50
2021/11/04 06:25:38;;;;;;;1.92;1.10;;;22.50;50.60;;;;;;3133560;28;20409;-57
2021/11/04 06:27:09;;;;;;;3.10;1.00;;;22.60;50.60;;;;;;3133579;28;20049;-53
2021/11/04 06:28:41;;;;;;;2.83;0.93;;;22.60;50.60;;;;;;3133613;28;20054;-50
2021/11/04 06:30:13;;;;;;;2.70;1.02;;;22.50;50.60;;;;;;3132240;28;20044;-57
2021/11/04 06:31:46;;;;;;;1.15;1.05;;;22.50;50.60;;;;;;3133724;28;20057;-50
2021/11/04 06:33:18;;;;;;;3.17;1.10;;;22.60;50.50;;;;;;3133740;28;20049;-56
2021/11/04 06:34:49;;;;;;;2.50;1.10;;;22.60;50.60;;;;;;3133054;28;20045;-51
2021/11/04 06:36:21;;;;;;;3.30;1.10;;;22.60;50.70;;;;;;3133699;28;20079;-51
2021/11/04 06:37:53;;;;;;;4.57;1.38;;;22.70;50.70;;;;;;3133825;28;20048;-51
2021/11/04 06:39:24;;;;;;;2.10;1.00;;;22.60;50.70;;;;;;3133079;28;20106;-51
2021/11/04 06:40:56;;;;;;;2.10;1.10;;;22.60;50.70;;;;;;3133626;28;20064;-57
2021/11/04 06:42:28;;;;;;;1.27;1.00;;;22.70;51.30;;;;;;3133822;28;20413;-55
2021/11/04 06:44:00;;;;;;;2.83;1.00;;;22.60;50.60;;;;;;3132992;28;20053;-56
2021/11/04 06:45:32;;;;;;;2.95;1.00;;;22.70;50.60;;;;;;3132558;28;20060;-51
2021/11/04 06:47:06;;;;;;;2.53;1.10;;;22.70;50.60;;;;;;3133583;28;20202;-55
2021/11/04 06:48:42;;;;;;;1.95;1.10;;;22.60;50.70;;;;;;3133199;28;20299;-57
2021/11/04 06:50:14;;;;;;;1.45;0.90;;;22.60;50.80;;;;;;3133103;28;20209;-53
2021/11/04 06:51:48;;;;;;;6.72;1.00;;;22.70;50.70;;;;;;3133692;28;20405;-50
2021/11/04 06:53:22;;;;;;;2.55;1.05;;;22.70;50.70;;;;;;3133535;28;20481;-54
2021/11/04 06:54:55;;;;;;;1.80;1.00;;;22.70;50.70;;;;;;3133053;28;20067;-50
2021/11/04 06:56:28;;;;;;;2.90;1.15;;;22.60;50.80;;;;;;3133450;28;20382;-57
2021/11/04 06:58:01;;;;;;;1.67;0.90;;;22.70;50.70;;;;;;3133415;28;20049;-52
2021/11/04 06:59:34;;;;;;;1.67;1.00;;;22.60;50.80;;;;;;3132834;28;20037;-52
2021/11/04 07:01:08;;;;;;;2.33;1.00;;;22.60;50.90;;;;;;3132534;28;20046;-51
2021/11/04 07:02:43;;;;;;;1.58;1.20;;;22.60;50.90;;;;;;3133155;28;20049;-52
2021/11/04 07:04:18;;;;;;;1.52;1.00;;;22.60;50.90;;;;;;3132846;28;20502;-55
2021/11/04 07:05:55;;;;;;;1.58;0.88;;;22.60;50.90;;;;;;3132983;28;20049;-53
2021/11/04 07:07:27;;;;;;;2.50;1.10;;;22.60;50.90;;;;;;3133362;28;20139;-51
2021/11/04 07:08:59;;;;;;;2.50;1.10;;;22.60;50.90;;;;;;3133084;28;20083;-55
2021/11/04 07:10:31;;;;;;;3.08;1.17;;;22.60;50.80;;;;;;3133235;28;20108;-56
2021/11/04 07:12:03;;;;;;;2.03;1.10;;;22.60;50.90;;;;;;3133237;28;20378;-50
2021/11/04 07:13:35;;;;;;;3.47;1.38;;;22.60;50.90;;;;;;3133293;28;20049;-50
2021/11/04 07:15:07;;;;;;;2.45;1.17;;;22.60;51.00;;;;;;3131820;28;20102;-54
2021/11/04 07:16:39;;;;;;;2.65;1.10;;;22.60;51.00;;;;;;3133360;28;20045;-54
2021/11/04 07:18:12;;;;;;;3.92;1.10;;;22.60;51.10;;;;;;3133434;28;20122;-50
2021/11/04 07:19:45;;;;;;;2.33;1.20;;;22.60;51.10;;;;;;3132942;28;20385;-54
2021/11/04 07:21:24;;;;;;;1.58;1.00;;;22.60;51.10;;;;;;3133119;28;20084;-56
2021/11/04 07:22:56;;;;;;;1.98;1.15;;;22.50;51.10;;;;;;3120523;28;20050;-56
2021/11/04 07:24:30;;;;;;;1.38;0.95;;;22.60;51.10;;;;;;3119753;28;20049;-55
2021/11/04 07:26:02;;;;;;;1.35;1.10;;;22.50;51.00;;;;;;3124091;28;20485;-54
2021/11/04 07:27:38;;;;;;;2.58;1.10;;;22.60;51.00;;;;;;3132673;28;20080;-57
2021/11/04 07:29:11;;;;;;;1.73;1.20;;;22.60;51.00;;;;;;3132055;28;20448;-50
2021/11/04 07:30:43;;;;;;;1.73;1.10;;;22.60;51.00;;;;;;3131047;28;20397;-53
2021/11/04 07:32:16;;;;;;;1.77;1.07;;;22.60;51.10;;;;;;3130383;28;20106;-54
2021/11/04 07:33:49;;;;;;;2.30;1.40;;;22.60;51.10;;;;;;3132111;28;20361;-51
2021/11/04 07:35:23;;;;;;;1.60;1.10;;;22.70;51.00;;;;;;3131918;28;20056;-58
2021/11/04 07:36:54;;;;;;;1.48;1.13;;;22.60;51.00;;;;;;3132472;28;20140;-57
2021/11/04 07:38:27;;;;;;;1.77;1.10;;;22.70;51.00;;;;;;3132740;28;20053;-54
2021/11/04 07:39:58;;;;;;;2.47;1.00;;;22.60;50.80;;;;;;3131169;28;20094;-55
2021/11/04 07:41:30;;;;;;;3.28;1.20;;;22.70;50.80;;;;;;3133537;28;20048;-51
2021/11/04 07:43:02;;;;;;;5.38;1.13;;;22.80;50.90;;;;;;3133129;28;20132;-57
2021/11/04 07:44:34;;;;;;;3.63;1.10;;;22.80;50.90;;;;;;3131827;28;20072;-58
2021/11/04 07:46:06;;;;;;;8.63;1.13;;;22.80;50.80;;;;;;3131561;28;20081;-52
2021/11/04 07:47:37;;;;;;;2.80;1.50;;;22.80;50.80;;;;;;3131893;28;20045;-59
2021/11/04 07:49:10;;;;;;;7.45;1.27;;;22.80;51.00;;;;;;3131351;28;20053;-51
2021/11/04 07:50:47;;;;;;;5.78;1.30;;;22.90;50.80;;;;;;3130882;28;20049;-55
2021/11/04 07:52:19;;;;;;;3.22;0.90;;;23.10;50.80;;;;;;3132790;28;20052;-55
2021/11/04 07:53:51;;;;;;;3.03;1.30;;;23.20;50.70;;;;;;3131411;28;20099;-56
2021/11/04 07:55:25;;;;;;;2.60;1.20;;;23.20;50.70;;;;;;3120255;28;20425;-57
2021/11/04 07:57:00;;;;;;;4.18;1.40;;;23.30;50.60;;;;;;3119954;28;20552;-50
2021/11/04 07:58:33;;;;;;;1.95;0.90;;;23.30;50.50;;;;;;3120237;28;20264;-57
2021/11/04 08:00:14;;;;;;;5.95;1.13;;;23.30;50.70;;;;;;3129881;28;20052;-54
2021/11/04 08:01:49;;;;;;;4.18;1.17;;;23.40;50.50;;;;;;3132477;28;20052;-58